Rio Pardo, Brazil
Current Conditions -  °F | °C
As of 10:00 PM on Wednesday 26 Nov 2014 (Local Time) from SBPA Reporting Station
Few Clouds Few Clouds  
Wind Chill: 75°   Ceiling: Unl
Heat Index: 75°   Visibility: 6mi
Dew Point: 68°   Wind: 12mph
Humidity: 78%   Direction: 140°SE
Pressure: 29.88"   Gusts: NA
Location:  29.99°S, 52.38°W
Report Text: SBPA 270000Z 14010KT 9999 FEW020 24/20 Q1012
Loading
Personal Weather Stations






























Interactive Weather Map New forecast layout! Learn more

10-Day Weather Forecast

Advertisements
Track Severe Weather on mobile